aviador You're here:

SARC Decoded Metar

CORRIENTES in ARGENTINA
Report Time2017-12-16 16:00:00
UTC Time2017-12-16 16:51:11
Flight Rules vfr VFR
Wind050° at 15 kt
W.Decomp.*RWY 02: 11.5 kt HW 9.6 kt RCW
W.Rank050° ranks 3
Current wind is above 050° avg. (6.3)
Visibility9999 m
Phenomena:N/A
Clouds:N/A
Expected CloudBase > 8,000 ft AGL from Temp-Dew spread
CeilingNone
Temp39°C (ISA +24)
Dew Point19°C (31% RH)
Heat Index41.6°C
AAT36.7°C
QNH1004 hPa
Density Alt3,540 ft
Elevation203 ft
Report Wrong Elevation
Raw Report
METAR SARC 161600Z 05015KT CAVOK 39/19 Q1004=

Extra information for SARC:More info

Metar Taf Metar & Taf Last 4 Metars F.Rules Stats Wind Profile Meteogram Temp Stats Airport Information Weather charts Add Link Nearby VenuesMetar ALERT Operation Metar Decoded Social comments